createdAt,value
2023-02-04T00:00:07.543Z,10.80
2023-02-04T00:02:34.738Z,10.70
2023-02-04T00:05:01.738Z,10.80
2023-02-04T00:07:28.523Z,10.80
2023-02-04T00:09:55.423Z,10.80
2023-02-04T00:12:22.656Z,10.70
2023-02-04T00:14:49.498Z,10.70
2023-02-04T00:17:16.562Z,10.60
2023-02-04T00:19:43.376Z,10.60
2023-02-04T00:22:10.309Z,10.50
2023-02-04T00:24:37.903Z,10.60
2023-02-04T00:27:05.998Z,10.60
2023-02-04T00:29:32.778Z,10.60
2023-02-04T00:31:59.725Z,10.50
2023-02-04T00:34:26.855Z,10.50
2023-02-04T00:36:53.537Z,10.40
2023-02-04T00:39:20.289Z,10.30
2023-02-04T00:41:47.026Z,10.30
2023-02-04T00:44:16.660Z,10.20
2023-02-04T00:46:43.590Z,10.20
2023-02-04T00:49:11.425Z,10.20
2023-02-04T00:51:40.296Z,10.30
2023-02-04T00:54:07.639Z,10.20
2023-02-04T00:56:35.114Z,10.30
2023-02-04T00:59:02.226Z,10.30
2023-02-04T01:01:29.482Z,10.40
2023-02-04T01:03:56.400Z,10.20
2023-02-04T01:06:23.163Z,10.30
2023-02-04T01:08:49.947Z,10.30
2023-02-04T01:11:17.165Z,10.20
2023-02-04T01:13:43.883Z,10.20
2023-02-04T01:16:10.707Z,10.10
2023-02-04T01:18:37.542Z,10.10
2023-02-04T01:21:04.733Z,9.90
2023-02-04T01:23:31.462Z,9.90
2023-02-04T01:25:58.303Z,9.80
2023-02-04T01:28:25.623Z,10.30
2023-02-04T01:30:52.542Z,9.50
2023-02-04T01:33:19.429Z,9.60
2023-02-04T01:35:46.199Z,9.60
2023-02-04T01:38:13.013Z,9.50
2023-02-04T01:40:40.416Z,9.60
2023-02-04T01:43:07.433Z,9.60
2023-02-04T01:45:35.621Z,9.60
2023-02-04T01:48:04.334Z,9.50
2023-02-04T01:50:32.052Z,9.40
2023-02-04T01:52:59.836Z,9.30
2023-02-04T01:55:30.472Z,9.20
2023-02-04T01:57:58.769Z,9.10
2023-02-04T02:00:32.849Z,9.20
2023-02-04T02:03:00.588Z,9.20
2023-02-04T02:05:39.233Z,9.20
2023-02-04T02:08:07.578Z,9.20
2023-02-04T02:10:36.830Z,9.20
2023-02-04T02:13:04.994Z,9.20
2023-02-04T02:15:31.817Z,9.30
2023-02-04T02:17:58.861Z,9.20
2023-02-04T02:20:28.337Z,9.30
2023-02-04T02:23:10.196Z,9.30
2023-02-04T02:25:37.376Z,9.30
2023-02-04T02:28:09.870Z,9.40
2023-02-04T02:30:37.287Z,9.30
2023-02-04T02:33:05.959Z,9.30
2023-02-04T02:35:33.189Z,9.20
2023-02-04T02:37:59.964Z,9.20
2023-02-04T02:40:27.130Z,9.10
2023-02-04T02:42:54.652Z,9.10
2023-02-04T02:45:26.023Z,9.10
2023-02-04T02:47:54.118Z,9.10
2023-02-04T02:50:24.576Z,9.20
2023-02-04T02:52:52.185Z,9.20
2023-02-04T02:55:21.775Z,9.30
2023-02-04T02:57:49.513Z,9.20
2023-02-04T03:00:23.959Z,9.30
2023-02-04T03:03:06.270Z,9.30
2023-02-04T03:05:37.328Z,9.50
2023-02-04T03:08:05.060Z,9.50
2023-02-04T03:10:32.243Z,9.30
2023-02-04T03:13:00.148Z,9.30
2023-02-04T03:15:27.158Z,9.30
2023-02-04T03:17:56.724Z,9.40
2023-02-04T03:20:25.565Z,9.40
2023-02-04T03:22:53.454Z,9.50
2023-02-04T03:25:20.588Z,9.30
2023-02-04T03:27:47.752Z,9.40
2023-02-04T03:30:14.552Z,9.30
2023-02-04T03:32:41.715Z,9.20
2023-02-04T03:35:08.729Z,9.20
2023-02-04T03:37:35.479Z,9.10
2023-02-04T03:40:02.302Z,9.10
2023-02-04T03:42:29.074Z,9.20
2023-02-04T03:44:55.824Z,9.20
2023-02-04T03:47:22.595Z,9.10
2023-02-04T03:49:49.649Z,9.10
2023-02-04T03:52:16.518Z,9.00
2023-02-04T03:54:43.296Z,9.00
2023-02-04T03:57:10.723Z,8.80
2023-02-04T03:59:37.821Z,8.80
2023-02-04T04:02:04.951Z,8.60
2023-02-04T04:04:31.933Z,8.70
2023-02-04T04:06:58.655Z,8.80
2023-02-04T04:09:25.373Z,8.70
2023-02-04T04:11:52.109Z,8.70
2023-02-04T04:14:18.757Z,8.70
2023-02-04T04:16:45.458Z,8.70
2023-02-04T04:19:12.238Z,8.60
2023-02-04T04:21:39.044Z,8.50
2023-02-04T04:24:06.079Z,8.60
2023-02-04T04:26:32.865Z,8.50
2023-02-04T04:28:59.593Z,8.50
2023-02-04T04:31:26.432Z,8.40
2023-02-04T04:33:53.183Z,8.40
2023-02-04T04:36:19.939Z,8.40
2023-02-04T04:38:46.651Z,8.50
2023-02-04T04:41:13.612Z,8.70
2023-02-04T04:43:40.326Z,8.70
2023-02-04T04:46:07.139Z,8.80
2023-02-04T04:48:33.802Z,8.70
2023-02-04T04:51:00.468Z,8.70
2023-02-04T04:53:27.292Z,8.70
2023-02-04T04:55:54.060Z,8.60
2023-02-04T04:58:20.799Z,8.70
2023-02-04T05:00:48.296Z,8.50
2023-02-04T05:03:15.264Z,8.60
2023-02-04T05:05:42.027Z,8.50
2023-02-04T05:08:12.904Z,8.60
2023-02-04T05:10:44.042Z,8.60
2023-02-04T05:13:11.319Z,8.70
2023-02-04T05:15:38.164Z,8.60
2023-02-04T05:18:05.045Z,8.70
2023-02-04T05:20:32.485Z,8.80
2023-02-04T05:23:04.025Z,8.80
2023-02-04T05:25:32.198Z,8.90
2023-02-04T05:27:58.986Z,8.70
2023-02-04T05:30:25.993Z,8.60
2023-02-04T05:32:53.080Z,8.50
2023-02-04T05:35:20.076Z,8.50
2023-02-04T05:37:46.893Z,8.50
2023-02-04T05:40:14.037Z,8.50
2023-02-04T05:42:41.902Z,8.40
2023-02-04T05:45:19.017Z,8.50
2023-02-04T05:47:45.764Z,8.40
2023-02-04T05:50:12.550Z,8.40
2023-02-04T05:52:40.613Z,8.50
2023-02-04T05:55:08.761Z,8.50
2023-02-04T05:57:35.461Z,8.50
2023-02-04T06:00:02.451Z,8.40
2023-02-04T06:02:29.151Z,8.40
2023-02-04T06:04:56.063Z,8.40
2023-02-04T06:07:22.837Z,8.40
2023-02-04T06:09:49.496Z,8.20
2023-02-04T06:12:16.221Z,8.10
2023-02-04T06:14:42.963Z,8.10
2023-02-04T06:17:09.760Z,8.10
2023-02-04T06:19:36.473Z,8.10
2023-02-04T06:22:03.176Z,8.00
2023-02-04T06:24:30.069Z,8.10
2023-02-04T06:26:56.754Z,8.00
2023-02-04T06:29:23.482Z,8.00
2023-02-04T06:31:50.312Z,8.10
2023-02-04T06:34:17.084Z,8.00
2023-02-04T06:36:44.033Z,8.00
2023-02-04T06:39:10.824Z,8.10
2023-02-04T06:41:37.564Z,8.10
2023-02-04T06:44:04.570Z,8.20
2023-02-04T06:46:31.332Z,8.40
2023-02-04T06:48:58.109Z,8.30
2023-02-04T06:51:24.912Z,8.30
2023-02-04T06:53:52.575Z,8.20
2023-02-04T06:56:19.316Z,8.10
2023-02-04T06:58:46.077Z,8.10
2023-02-04T07:01:12.830Z,8.10
2023-02-04T07:03:39.498Z,7.90
2023-02-04T07:06:06.363Z,7.90
2023-02-04T07:08:33.822Z,7.90
2023-02-04T07:11:00.607Z,8.00
2023-02-04T07:13:27.530Z,8.00
2023-02-04T07:15:54.276Z,8.00
2023-02-04T07:18:21.363Z,7.90
2023-02-04T07:20:48.151Z,7.90
2023-02-04T07:23:14.857Z,8.00
2023-02-04T07:25:41.551Z,8.10
2023-02-04T07:28:08.651Z,8.20
2023-02-04T07:30:35.848Z,8.30
2023-02-04T07:33:02.722Z,8.40
2023-02-04T07:35:29.538Z,8.60
2023-02-04T07:37:56.236Z,8.70
2023-02-04T07:40:22.927Z,8.80
2023-02-04T07:42:49.674Z,8.80
2023-02-04T07:45:16.506Z,9.00
2023-02-04T07:47:43.310Z,9.00
2023-02-04T07:50:10.508Z,9.10
2023-02-04T07:52:37.262Z,9.20
2023-02-04T07:55:04.290Z,9.30
2023-02-04T07:57:31.238Z,9.50
2023-02-04T07:59:57.933Z,9.50
2023-02-04T08:02:24.750Z,9.60
2023-02-04T08:04:51.518Z,9.70
2023-02-04T08:07:18.557Z,9.70
2023-02-04T08:09:46.892Z,9.80
2023-02-04T08:12:13.693Z,9.80
2023-02-04T08:14:40.426Z,10.00
2023-02-04T08:17:07.182Z,10.00
2023-02-04T08:19:33.928Z,10.00
2023-02-04T08:22:00.620Z,10.10
2023-02-04T08:24:27.332Z,10.20
2023-02-04T08:26:54.096Z,10.30
2023-02-04T08:29:20.902Z,10.50
2023-02-04T08:31:47.821Z,10.40
2023-02-04T08:34:14.866Z,10.40
2023-02-04T08:36:41.675Z,10.40
2023-02-04T08:39:08.407Z,10.40
2023-02-04T08:41:35.336Z,10.50
2023-02-04T08:44:02.031Z,10.60
2023-02-04T08:46:28.874Z,10.60
2023-02-04T08:48:55.949Z,10.80
2023-02-04T08:51:22.734Z,10.90
2023-02-04T08:53:49.687Z,11.10
2023-02-04T08:56:18.073Z,11.30
2023-02-04T08:58:45.291Z,11.40
2023-02-04T09:01:12.707Z,11.40
2023-02-04T09:03:39.983Z,11.50
2023-02-04T09:06:08.822Z,11.50
2023-02-04T09:08:35.858Z,11.50
2023-02-04T09:11:03.126Z,11.70
2023-02-04T09:13:30.019Z,12.00
2023-02-04T09:15:56.954Z,12.20
2023-02-04T09:18:25.558Z,12.50
2023-02-04T09:20:53.071Z,12.70
2023-02-04T09:23:19.904Z,13.00
2023-02-04T09:25:46.984Z,13.20
2023-02-04T09:28:17.004Z,13.40
2023-02-04T09:30:45.826Z,13.60
2023-02-04T09:33:14.238Z,13.90
2023-02-04T09:35:41.103Z,14.20
2023-02-04T09:38:07.943Z,14.60
2023-02-04T09:40:38.611Z,15.00
2023-02-04T09:43:07.031Z,15.40
2023-02-04T09:45:35.436Z,15.70
2023-02-04T09:48:07.495Z,15.90
2023-02-04T09:50:35.238Z,16.20
2023-02-04T09:53:04.707Z,16.40
2023-02-04T09:55:37.991Z,16.60
2023-02-04T09:58:18.680Z,16.80
2023-02-04T10:00:48.644Z,16.90
2023-02-04T10:03:18.306Z,17.00
2023-02-04T10:05:46.733Z,17.30
2023-02-04T10:08:19.763Z,17.30
2023-02-04T10:10:49.020Z,17.40
2023-02-04T10:13:22.895Z,17.60
2023-02-04T10:15:50.973Z,17.60
2023-02-04T10:18:30.082Z,17.70
2023-02-04T10:21:08.866Z,17.80
2023-02-04T10:23:35.815Z,17.90
2023-02-04T10:26:04.184Z,18.00
2023-02-04T10:28:38.449Z,18.20
2023-02-04T10:31:05.399Z,18.30
2023-02-04T10:33:33.176Z,18.50
2023-02-04T10:36:00.214Z,18.70
2023-02-04T10:38:27.042Z,18.80
2023-02-04T10:41:04.608Z,18.90
2023-02-04T10:43:31.844Z,19.00
2023-02-04T10:46:01.995Z,19.00
2023-02-04T10:48:31.173Z,19.10
2023-02-04T10:50:59.120Z,19.10
2023-02-04T10:53:45.403Z,19.10
2023-02-04T10:56:17.932Z,19.00
2023-02-04T10:58:45.001Z,18.80
2023-02-04T11:01:13.656Z,18.70
2023-02-04T11:03:41.955Z,19.00
2023-02-04T11:06:13.387Z,19.40
2023-02-04T11:08:40.738Z,20.30
2023-02-04T11:11:20.729Z,21.00
2023-02-04T11:13:50.710Z,21.70
2023-02-04T11:16:17.688Z,23.30
2023-02-04T11:18:54.936Z,24.20
2023-02-04T11:21:21.684Z,24.00
2023-02-04T11:23:49.280Z,23.30
2023-02-04T11:26:20.247Z,23.20
2023-02-04T11:28:49.345Z,24.10
2023-02-04T11:31:21.989Z,28.20
2023-02-04T11:33:50.992Z,33.00
2023-02-04T11:36:18.102Z,35.40
2023-02-04T11:38:49.935Z,37.70
2023-02-04T11:41:31.679Z,39.80
2023-02-04T11:43:58.633Z,41.50
2023-02-04T11:46:29.224Z,42.40
2023-02-04T11:48:57.837Z,43.10
2023-02-04T11:51:31.338Z,43.80
2023-02-04T11:53:58.400Z,43.90
2023-02-04T11:56:29.585Z,43.90
2023-02-04T11:58:58.254Z,44.20
2023-02-04T12:01:33.364Z,44.80
2023-02-04T12:04:02.206Z,43.80
2023-02-04T12:06:33.087Z,43.70
2023-02-04T12:09:27.123Z,44.00
2023-02-04T12:12:03.949Z,44.10
2023-02-04T12:14:35.344Z,44.20
2023-02-04T12:17:12.751Z,43.70
2023-02-04T12:19:39.486Z,43.10
2023-02-04T12:22:06.181Z,43.60
2023-02-04T12:24:32.942Z,44.40
2023-02-04T12:26:59.648Z,44.50
2023-02-04T12:29:26.381Z,44.50
2023-02-04T12:31:53.242Z,44.70
2023-02-04T12:34:20.341Z,44.80
2023-02-04T12:36:47.047Z,44.40
2023-02-04T12:39:13.745Z,44.50
2023-02-04T12:41:40.658Z,43.80
2023-02-04T12:44:07.394Z,44.40
2023-02-04T12:46:34.157Z,44.80
2023-02-04T12:49:00.937Z,44.90
2023-02-04T12:51:27.774Z,45.50
2023-02-04T12:53:54.445Z,45.30
2023-02-04T12:56:23.664Z,45.50
2023-02-04T12:58:50.324Z,45.50
2023-02-04T13:01:16.989Z,45.20
2023-02-04T13:03:43.793Z,44.90
2023-02-04T13:06:10.561Z,45.00
2023-02-04T13:08:37.320Z,45.30
2023-02-04T13:11:04.185Z,45.50
2023-02-04T13:13:30.846Z,45.50
2023-02-04T13:15:57.549Z,45.60
2023-02-04T13:18:24.333Z,45.00
2023-02-04T13:20:51.044Z,45.20
2023-02-04T13:23:17.754Z,45.00
2023-02-04T13:25:45.261Z,45.20
2023-02-04T13:28:12.095Z,44.20
2023-02-04T13:30:38.896Z,43.50
2023-02-04T13:33:05.705Z,42.50
2023-02-04T13:35:34.249Z,42.20
2023-02-04T13:38:01.127Z,41.90
2023-02-04T13:40:27.999Z,41.40
2023-02-04T13:42:54.814Z,41.70
2023-02-04T13:45:21.573Z,41.80
2023-02-04T13:47:48.881Z,42.10
2023-02-04T13:50:16.697Z,42.50
2023-02-04T13:52:43.597Z,42.70
2023-02-04T13:55:10.987Z,42.40
2023-02-04T13:57:38.016Z,41.90
2023-02-04T14:00:07.286Z,41.20
2023-02-04T14:02:34.664Z,40.90
2023-02-04T14:05:01.700Z,40.20
2023-02-04T14:07:28.575Z,40.10
2023-02-04T14:09:55.314Z,40.20
2023-02-04T14:12:22.131Z,40.70
2023-02-04T14:14:48.816Z,40.50
2023-02-04T14:17:15.757Z,40.20
2023-02-04T14:19:42.648Z,39.90
2023-02-04T14:22:12.927Z,39.90
2023-02-04T14:24:42.453Z,39.90
2023-02-04T14:27:10.314Z,40.20
2023-02-04T14:29:37.070Z,40.10
2023-02-04T14:32:04.407Z,39.70
2023-02-04T14:34:31.324Z,39.60
2023-02-04T14:36:58.061Z,39.90
2023-02-04T14:39:24.919Z,39.60
2023-02-04T14:41:51.636Z,40.30
2023-02-04T14:44:20.704Z,41.10
2023-02-04T14:46:49.127Z,41.50
2023-02-04T14:49:16.998Z,41.20
2023-02-04T14:51:44.023Z,38.60
2023-02-04T14:54:11.161Z,35.50
2023-02-04T14:56:37.923Z,32.70
2023-02-04T14:59:06.039Z,30.40
2023-02-04T15:01:32.803Z,28.90
2023-02-04T15:03:59.659Z,27.80
2023-02-04T15:06:26.389Z,26.80
2023-02-04T15:08:53.378Z,26.00
2023-02-04T15:11:20.160Z,25.30
2023-02-04T15:13:46.880Z,24.60
2023-02-04T15:16:14.832Z,24.40
2023-02-04T15:18:42.326Z,24.20
2023-02-04T15:21:09.702Z,24.00
2023-02-04T15:23:36.506Z,23.70
2023-02-04T15:26:03.484Z,23.50
2023-02-04T15:28:31.378Z,23.30
2023-02-04T15:30:58.721Z,23.20
2023-02-04T15:33:25.641Z,23.10
2023-02-04T15:35:52.364Z,22.90
2023-02-04T15:38:19.156Z,22.70
2023-02-04T15:40:45.883Z,22.60
2023-02-04T15:43:12.699Z,22.50
2023-02-04T15:45:41.747Z,22.40
2023-02-04T15:48:08.758Z,22.30
2023-02-04T15:50:36.207Z,22.20
2023-02-04T15:53:03.852Z,22.00
2023-02-04T15:55:30.752Z,22.00
2023-02-04T15:57:57.491Z,21.80
2023-02-04T16:00:25.165Z,21.60
2023-02-04T16:02:51.962Z,21.60
2023-02-04T16:05:18.798Z,21.50
2023-02-04T16:07:45.619Z,21.40
2023-02-04T16:10:12.431Z,21.30
2023-02-04T16:12:39.149Z,21.20
2023-02-04T16:15:06.367Z,21.00
2023-02-04T16:17:33.063Z,21.00
2023-02-04T16:19:59.863Z,21.00
2023-02-04T16:22:26.647Z,20.90
2023-02-04T16:24:53.466Z,20.70
2023-02-04T16:27:20.398Z,20.50
2023-02-04T16:29:47.501Z,21.20
2023-02-04T16:32:15.426Z,20.40
2023-02-04T16:34:42.092Z,20.40
2023-02-04T16:37:09.011Z,20.20
2023-02-04T16:39:38.904Z,20.10
2023-02-04T16:42:10.294Z,20.00
2023-02-04T16:44:37.903Z,20.00
2023-02-04T16:47:08.931Z,19.80
2023-02-04T16:49:36.061Z,19.70
2023-02-04T16:52:05.066Z,19.60
2023-02-04T16:54:32.401Z,19.60
2023-02-04T16:57:03.697Z,19.50
2023-02-04T16:59:32.011Z,19.50
2023-02-04T17:02:00.441Z,19.40
2023-02-04T17:04:28.276Z,19.40
2023-02-04T17:06:55.030Z,19.30
2023-02-04T17:09:21.788Z,19.20
2023-02-04T17:11:48.843Z,19.20
2023-02-04T17:14:16.002Z,19.10
2023-02-04T17:16:43.994Z,19.00
2023-02-04T17:19:11.632Z,19.00
2023-02-04T17:21:39.276Z,18.90
2023-02-04T17:24:07.468Z,18.90
2023-02-04T17:26:39.710Z,18.80
2023-02-04T17:29:10.924Z,18.80
2023-02-04T17:31:38.368Z,18.70
2023-02-04T17:34:05.726Z,18.70
2023-02-04T17:36:32.773Z,18.60
2023-02-04T17:38:59.512Z,18.60
2023-02-04T17:41:26.597Z,18.60
2023-02-04T17:43:53.831Z,18.60
2023-02-04T17:46:20.836Z,18.50
2023-02-04T17:48:47.994Z,18.40
2023-02-04T17:51:14.848Z,18.50
2023-02-04T17:53:41.858Z,18.40
2023-02-04T17:56:13.630Z,18.40
2023-02-04T17:58:41.808Z,18.40
2023-02-04T18:01:14.921Z,18.30
2023-02-04T18:03:46.437Z,18.20
2023-02-04T18:06:29.034Z,18.20
2023-02-04T18:09:01.533Z,18.10
2023-02-04T18:11:35.991Z,18.20
2023-02-04T18:14:12.294Z,18.10
2023-02-04T18:16:40.194Z,18.10
2023-02-04T18:19:20.801Z,18.00
2023-02-04T18:21:49.718Z,17.90
2023-02-04T18:24:32.479Z,17.90
2023-02-04T18:27:24.490Z,17.90
2023-02-04T18:29:55.485Z,17.80
2023-02-04T18:32:26.453Z,17.80
2023-02-04T18:34:55.178Z,17.70
2023-02-04T18:37:35.534Z,17.60
2023-02-04T18:40:11.641Z,17.60
2023-02-04T18:42:40.632Z,17.50
2023-02-04T18:45:31.535Z,17.30
2023-02-04T18:48:16.303Z,17.20
2023-02-04T18:50:44.309Z,16.90
2023-02-04T18:53:10.972Z,16.70
2023-02-04T18:55:40.219Z,16.50
2023-02-04T18:58:35.642Z,16.10
2023-02-04T19:01:10.485Z,15.90
2023-02-04T19:03:46.476Z,15.40
2023-02-04T19:06:27.605Z,14.90
2023-02-04T19:09:12.497Z,14.70
2023-02-04T19:11:46.803Z,14.40
2023-02-04T19:14:37.368Z,13.90
2023-02-04T19:17:36.067Z,13.50
2023-02-04T19:20:19.716Z,13.30
2023-02-04T19:22:50.489Z,13.20
2023-02-04T19:25:24.329Z,13.00
2023-02-04T19:27:56.499Z,12.70
2023-02-04T19:30:29.219Z,12.70
2023-02-04T19:32:57.585Z,12.60
2023-02-04T19:35:27.278Z,12.50
2023-02-04T19:37:55.989Z,12.30
2023-02-04T19:40:37.144Z,12.20
2023-02-04T19:43:22.253Z,12.00
2023-02-04T19:45:53.534Z,12.00
2023-02-04T19:48:27.950Z,12.00
2023-02-04T19:50:55.123Z,11.90
2023-02-04T19:53:25.791Z,11.90
2023-02-04T19:55:53.302Z,11.70
2023-02-04T19:58:24.436Z,11.70
2023-02-04T20:01:01.297Z,11.60
2023-02-04T20:03:35.974Z,11.60
2023-02-04T20:06:29.785Z,11.50
2023-02-04T20:09:22.934Z,11.40
2023-02-04T20:12:00.408Z,11.40
2023-02-04T20:14:37.077Z,11.30
2023-02-04T20:17:28.562Z,11.30
2023-02-04T20:19:59.639Z,11.30
2023-02-04T20:22:46.074Z,11.10
2023-02-04T20:25:34.381Z,11.10
2023-02-04T20:28:13.810Z,11.00
2023-02-04T20:30:40.950Z,11.00
2023-02-04T20:33:32.254Z,10.90
2023-02-04T20:36:20.796Z,10.80
2023-02-04T20:38:47.587Z,10.90
2023-02-04T20:41:19.991Z,10.70
2023-02-04T20:43:49.780Z,10.80
2023-02-04T20:46:26.270Z,10.80
2023-02-04T20:48:53.097Z,10.70
2023-02-04T20:51:24.593Z,10.70
2023-02-04T20:53:58.252Z,10.70
2023-02-04T20:56:29.725Z,10.70
2023-02-04T20:59:14.363Z,10.70
2023-02-04T21:01:50.025Z,10.50
2023-02-04T21:04:19.761Z,10.60
2023-02-04T21:06:46.717Z,10.60
2023-02-04T21:09:27.282Z,10.50
2023-02-04T21:11:55.696Z,10.50
2023-02-04T21:14:23.215Z,10.40
2023-02-04T21:16:50.854Z,10.40
2023-02-04T21:19:17.680Z,10.40
2023-02-04T21:21:44.661Z,10.50
2023-02-04T21:24:11.528Z,10.60
2023-02-04T21:26:38.276Z,10.60
2023-02-04T21:29:05.038Z,10.60
2023-02-04T21:31:32.073Z,10.50
2023-02-04T21:33:58.904Z,10.60
2023-02-04T21:36:27.866Z,10.60
2023-02-04T21:38:55.759Z,10.50
2023-02-04T21:41:23.067Z,10.50
2023-02-04T21:43:50.828Z,10.40
2023-02-04T21:46:18.703Z,10.30
2023-02-04T21:48:45.677Z,10.40
2023-02-04T21:51:13.875Z,10.30
2023-02-04T21:53:41.002Z,10.20
2023-02-04T21:56:08.912Z,10.30
2023-02-04T21:58:36.453Z,10.40
2023-02-04T22:01:03.252Z,10.40
2023-02-04T22:03:30.077Z,10.50
2023-02-04T22:05:56.811Z,10.40
2023-02-04T22:08:23.953Z,10.40
2023-02-04T22:10:50.697Z,10.30
2023-02-04T22:13:17.456Z,10.40
2023-02-04T22:15:44.416Z,10.60
2023-02-04T22:18:12.112Z,10.60
2023-02-04T22:20:39.583Z,10.70
2023-02-04T22:23:06.704Z,10.70
2023-02-04T22:25:33.735Z,10.70
2023-02-04T22:28:00.708Z,10.70
2023-02-04T22:30:27.584Z,10.60
2023-02-04T22:32:55.722Z,10.80
2023-02-04T22:35:22.715Z,10.80
2023-02-04T22:37:49.628Z,10.70
2023-02-04T22:40:16.491Z,10.60
2023-02-04T22:42:43.330Z,10.50
2023-02-04T22:45:10.433Z,10.60
2023-02-04T22:47:37.248Z,10.60
2023-02-04T22:50:04.232Z,10.60
2023-02-04T22:52:31.014Z,10.60
2023-02-04T22:54:57.835Z,10.70
2023-02-04T22:57:24.568Z,10.60
2023-02-04T22:59:51.367Z,10.60
2023-02-04T23:02:18.206Z,10.60
2023-02-04T23:04:44.937Z,10.60
2023-02-04T23:07:13.009Z,10.60
2023-02-04T23:09:40.089Z,10.50
2023-02-04T23:12:13.000Z,10.50
2023-02-04T23:14:41.674Z,10.50
2023-02-04T23:17:09.148Z,10.40
2023-02-04T23:19:35.963Z,10.40
2023-02-04T23:22:03.158Z,10.30
2023-02-04T23:24:30.932Z,10.20
2023-02-04T23:27:00.090Z,10.20
2023-02-04T23:29:32.249Z,10.30
2023-02-04T23:31:59.500Z,10.20
2023-02-04T23:34:26.226Z,10.10
2023-02-04T23:36:53.311Z,10.00
2023-02-04T23:39:20.753Z,10.00
2023-02-04T23:41:48.658Z,10.00
2023-02-04T23:44:15.856Z,10.10
2023-02-04T23:46:42.853Z,10.10
2023-02-04T23:49:09.989Z,10.00
2023-02-04T23:51:37.127Z,9.90
2023-02-04T23:54:04.437Z,9.90
2023-02-04T23:56:31.172Z,9.90
2023-02-04T23:58:58.149Z,9.90
